Time;durP1;ratioP1;P1;durP2;ratioP2;P2;SDS_P1;SDS_P2;PMS_P1;PMS_P2;Temp;Humidity;BMP_temperature;BMP_pressure;BME280_temperature;BME280_humidity;BME280_pressure;Samples;Min_cycle;Max_cycle;Signal;HPM_P1;HPM_P2
2022/04/27 00:01:48;;;;;;;22.95;16.08;;;;;;;7.28;100.00;100818.31;5064960;28;20131;-75
2022/04/27 00:04:15;;;;;;;22.75;16.55;;;;;;;7.36;100.00;100835.66;5060374;28;20056;-76
2022/04/27 00:06:42;;;;;;;21.63;16.45;;;;;;;7.04;100.00;100793.50;5059993;28;20055;-74
2022/04/27 00:09:09;;;;;;;21.90;16.60;;;;;;;7.26;100.00;100835.91;5067497;28;20045;-74
2022/04/27 00:11:35;;;;;;;21.58;16.83;;;;;;;7.22;100.00;100831.66;5070101;28;20401;-77
2022/04/27 00:14:03;;;;;;;23.88;16.45;;;;;;;7.18;100.00;100828.22;5060912;28;20040;-74
2022/04/27 00:16:30;;;;;;;22.90;16.42;;;;;;;7.04;100.00;100817.19;5058158;28;20052;-74
2022/04/27 00:18:57;;;;;;;25.20;18.25;;;;;;;7.12;100.00;100840.69;5065680;28;20049;-80
2022/04/27 00:21:24;;;;;;;24.38;17.67;;;;;;;7.10;100.00;100838.09;5066905;28;20391;-75
2022/04/27 00:23:50;;;;;;;25.73;17.90;;;;;;;6.95;100.00;100820.91;5061306;28;20048;-76
2022/04/27 00:26:18;;;;;;;22.52;17.52;;;;;;;6.94;100.00;100821.81;5065004;28;20044;-75
2022/04/27 00:28:45;;;;;;;22.30;17.05;;;;;;;7.01;100.00;100840.97;5068251;28;20433;-74
2022/04/27 00:31:11;;;;;;;24.30;17.70;;;;;;;6.98;100.00;100836.63;5064738;28;20127;-75
2022/04/27 00:33:38;;;;;;;27.48;19.40;;;;;;;6.96;100.00;100838.44;5057745;28;20052;-74
2022/04/27 00:36:05;;;;;;;23.95;18.77;;;;;;;6.95;100.00;100835.84;5059370;28;20099;-76
2022/04/27 00:38:31;;;;;;;24.60;17.98;;;;;;;6.94;100.00;100834.09;5068115;28;20040;-74
2022/04/27 00:40:58;;;;;;;25.50;18.48;;;;;;;6.77;100.00;100808.19;5068595;28;20041;-74
2022/04/27 00:43:40;;;;;;;26.60;18.48;;;;;;;6.90;100.00;100837.75;5066813;28;20117;-74
2022/04/27 00:46:11;;;;;;;25.02;18.08;;;;;;;6.74;100.00;100813.56;5068180;28;20041;-74
2022/04/27 00:48:41;;;;;;;27.92;18.58;;;;;;;6.85;100.00;100837.84;5061953;28;20099;-74
2022/04/27 00:51:16;;;;;;;26.58;19.17;;;;;;;6.84;100.00;100837.88;5063061;28;20051;-74
2022/04/27 00:53:43;;;;;;;26.20;19.50;;;;;;;6.84;100.00;100840.53;5067310;28;20128;-73
2022/04/27 00:56:12;;;;;;;24.38;18.45;;;;;;;6.65;100.00;100812.00;5062568;28;20079;-73
2022/04/27 00:58:42;;;;;;;23.73;18.23;;;;;;;6.81;100.00;100851.97;5065936;28;20037;-75
2022/04/27 01:01:18;;;;;;;25.58;19.05;;;;;;;6.79;100.00;100852.91;5069584;28;20140;-73
2022/04/27 01:03:45;;;;;;;27.08;19.67;;;;;;;6.80;100.00;100863.41;5067169;28;20056;-74
2022/04/27 01:06:13;;;;;;;29.50;20.65;;;;;;;6.78;100.00;100848.56;5062048;28;20074;-75
2022/04/27 01:08:39;;;;;;;26.80;19.50;;;;;;;6.73;100.00;100819.72;5066671;28;20048;-76
2022/04/27 01:11:07;;;;;;;27.45;19.85;;;;;;;6.92;100.00;100852.59;5061987;28;20045;-74
2022/04/27 01:13:34;;;;;;;25.90;19.15;;;;;;;6.95;100.00;100851.63;5066323;28;20102;-76
2022/04/27 01:16:02;;;;;;;26.67;18.95;;;;;;;7.00;100.00;100852.41;5066378;28;20075;-74
2022/04/27 01:18:29;;;;;;;25.50;18.60;;;;;;;6.89;100.00;100838.66;5063969;28;20064;-75
2022/04/27 01:20:55;;;;;;;24.40;18.88;;;;;;;6.98;100.00;100851.56;5067955;28;20127;-80
2022/04/27 01:23:28;;;;;;;26.00;19.20;;;;;;;7.04;100.00;100859.31;5066659;28;20128;-75
2022/04/27 01:25:57;;;;;;;25.95;18.50;;;;;;;6.95;100.00;100846.38;5070877;28;20087;-77
2022/04/27 01:28:26;;;;;;;25.30;19.08;;;;;;;7.02;100.00;100858.50;5068937;28;20076;-77
2022/04/27 01:31:01;;;;;;;26.00;17.67;;;;;;;6.82;100.00;100827.38;5072801;28;20048;-78
2022/04/27 01:33:30;;;;;;;24.27;18.70;;;;;;;7.00;100.00;100860.28;5068781;28;20045;-77
2022/04/27 01:36:00;;;;;;;24.65;19.17;;;;;;;6.84;100.00;100837.88;5071047;28;20452;-75
2022/04/27 01:38:32;;;;;;;26.48;18.63;;;;;;;6.83;100.00;100838.78;5069876;28;20057;-79
2022/04/27 01:40:59;;;;;;;23.55;17.90;;;;;;;6.94;100.00;100858.66;5070606;28;20080;-74
2022/04/27 01:43:26;;;;;;;24.80;19.08;;;;;;;6.93;100.00;100866.59;5072530;28;20052;-74
2022/04/27 01:45:53;;;;;;;25.88;20.05;;;;;;;6.88;100.00;100861.47;5069630;28;20037;-78
2022/04/27 01:48:20;;;;;;;24.35;18.15;;;;;;;6.84;100.00;100851.03;5070590;28;20129;-74
2022/04/27 01:50:46;;;;;;;25.58;18.88;;;;;;;6.94;100.00;100869.19;5071676;28;20129;-75
2022/04/27 01:55:59;;;;;;;26.48;18.88;;;;;;;6.74;100.00;100837.25;5076344;28;20163;-76
2022/04/27 01:58:25;;;;;;;23.80;18.08;;;;;;;6.75;100.00;100846.88;5066237;28;20033;-75
2022/04/27 02:00:53;;;;;;;25.10;18.60;;;;;;;6.86;100.00;100875.56;5067179;28;20056;-75
2022/04/27 02:03:21;;;;;;;30.00;20.58;;;;;;;6.66;100.00;100844.44;5066720;28;20044;-77
2022/04/27 02:05:49;;;;;;;24.98;18.95;;;;;;;6.73;100.00;100868.88;5067863;28;20094;-74
2022/04/27 02:08:16;;;;;;;26.40;19.33;;;;;;;6.78;100.00;100885.41;5074297;28;20139;-77
2022/04/27 02:10:43;;;;;;;28.95;19.95;;;;;;;6.79;100.00;100888.00;5064971;28;20052;-74
2022/04/27 02:13:10;;;;;;;26.90;19.95;;;;;;;6.79;100.00;100887.13;5068375;28;20068;-74
2022/04/27 02:15:37;;;;;;;28.35;20.48;;;;;;;6.75;100.00;100889.00;5070983;28;20158;-74
2022/04/27 02:18:06;;;;;;;28.02;20.92;;;;;;;6.74;100.00;100889.91;5069341;28;20463;-77
2022/04/27 02:20:33;;;;;;;26.50;19.95;;;;;;;6.74;100.00;100896.94;5071981;28;20044;-78
2022/04/27 02:22:59;;;;;;;30.23;20.60;;;;;;;6.75;100.00;100903.91;5070548;28;20126;-74
2022/04/27 02:25:26;;;;;;;29.70;21.20;;;;;;;6.60;100.00;100873.56;5067585;28;20049;-76
2022/04/27 02:27:53;;;;;;;29.48;21.02;;;;;;;6.71;100.00;100897.00;5068146;28;20103;-75
2022/04/27 02:30:19;;;;;;;30.88;22.73;;;;;;;6.73;100.00;100896.06;5066339;28;20102;-74
2022/04/27 02:32:46;;;;;;;32.15;22.05;;;;;;;6.76;100.00;100895.13;5069639;28;20067;-74
2022/04/27 02:35:14;;;;;;;33.67;22.38;;;;;;;6.74;100.00;100894.28;5065803;28;20178;-76
2022/04/27 02:37:41;;;;;;;28.90;21.40;;;;;;;6.71;100.00;100905.75;5062853;28;20497;-77
2022/04/27 02:40:09;;;;;;;27.95;20.83;;;;;;;6.52;100.00;100878.13;5067018;28;20102;-75
2022/04/27 02:42:36;;;;;;;32.28;22.38;;;;;;;6.67;100.00;100910.22;5072036;28;20078;-77
2022/04/27 02:45:03;;;;;;;32.60;22.25;;;;;;;6.64;100.00;100898.88;5071544;28;20082;-75
2022/04/27 02:47:31;;;;;;;32.10;22.95;;;;;;;6.62;100.00;100901.53;5064986;28;20056;-75
2022/04/27 02:52:43;;;;;;;33.15;22.75;;;;;;;6.54;100.00;100921.06;5052932;28;20080;-74
2022/04/27 02:55:10;;;;;;;34.35;23.55;;;;;;;6.54;100.00;100921.91;5065961;28;20055;-74
2022/04/27 02:57:36;;;;;;;31.80;23.17;;;;;;;6.56;100.00;100924.53;5068016;28;20063;-75
2022/04/27 03:00:04;;;;;;;30.17;22.50;;;;;;;6.57;100.00;100926.25;5069135;28;20568;-74
2022/04/27 03:02:31;;;;;;;33.53;23.35;;;;;;;6.56;100.00;100909.59;5067274;28;20072;-73
2022/04/27 03:05:00;;;;;;;32.17;23.25;;;;;;;6.38;100.00;100891.59;5063796;28;20044;-73
2022/04/27 03:07:30;;;;;;;30.52;23.50;;;;;;;6.61;100.00;100927.94;5067601;28;20064;-74
2022/04/27 03:09:57;;;;;;;34.35;24.23;;;;;;;6.61;100.00;100922.66;5068971;28;20068;-76
2022/04/27 03:12:24;;;;;;;30.88;22.55;;;;;;;6.55;100.00;100928.03;5065557;28;20159;-74
2022/04/27 03:14:51;;;;;;;35.35;24.77;;;;;;;6.52;100.00;100934.25;5065497;28;20543;-76
2022/04/27 03:17:17;;;;;;;34.45;25.23;;;;;;;6.45;100.00;100930.03;5068379;28;20072;-74
2022/04/27 03:19:44;;;;;;;35.50;25.35;;;;;;;6.26;100.00;100900.63;5066419;28;20500;-74
2022/04/27 03:22:11;;;;;;;32.40;23.60;;;;;;;6.19;100.00;100898.13;5070348;28;20109;-77
2022/04/27 03:24:38;;;;;;;34.30;25.05;;;;;;;6.34;100.00;100934.63;5066261;28;20048;-75
2022/04/27 03:27:05;;;;;;;34.85;25.90;;;;;;;6.18;100.00;100906.91;5062972;28;20041;-74
2022/04/27 03:29:32;;;;;;;36.92;24.60;;;;;;;6.37;100.00;100934.56;5061233;28;20113;-73
2022/04/27 03:31:59;;;;;;;35.85;24.95;;;;;;;6.25;100.00;100914.66;5058621;28;20500;-75
2022/04/27 03:34:25;;;;;;;37.70;26.65;;;;;;;6.41;100.00;100940.63;5064768;28;20472;-73
2022/04/27 03:36:52;;;;;;;36.25;26.25;;;;;;;6.41;100.00;100938.00;5067566;28;20487;-74
2022/04/27 03:39:19;;;;;;;37.05;25.98;;;;;;;6.35;100.00;100936.34;5067747;28;20433;-75
2022/04/27 03:42:06;;;;;;;38.92;27.67;;;;;;;6.31;100.00;100940.81;5067723;28;20044;-79
2022/04/27 03:44:32;;;;;;;39.15;26.55;;;;;;;6.11;100.00;100907.97;5066507;28;20076;-73
2022/04/27 03:46:59;;;;;;;34.58;25.17;;;;;;;6.26;100.00;100936.56;5063369;28;20519;-75
2022/04/27 03:49:26;;;;;;;35.25;27.10;;;;;;;5.99;100.00;100901.16;5066998;28;20149;-75
2022/04/27 03:51:53;;;;;;;39.88;27.20;;;;;;;6.24;100.00;100954.13;5064062;28;20041;-78
2022/04/27 03:54:20;;;;;;;35.90;26.67;;;;;;;6.25;100.00;100961.13;5069345;28;20469;-75
2022/04/27 03:56:47;;;;;;;41.30;27.77;;;;;;;6.20;100.00;100955.09;5068035;28;20037;-74
2022/04/27 03:59:15;;;;;;;41.80;28.08;;;;;;;6.21;100.00;100964.72;5066545;28;20121;-74
2022/04/27 04:01:42;;;;;;;39.55;28.67;;;;;;;6.11;100.00;100947.41;5063323;28;20139;-75
2022/04/27 04:04:09;;;;;;;37.55;26.08;;;;;;;6.17;100.00;100956.00;5063451;28;20072;-74
2022/04/27 04:06:38;;;;;;;40.30;28.50;;;;;;;6.22;100.00;100971.72;5067909;28;20048;-77
2022/04/27 04:09:05;;;;;;;39.92;27.88;;;;;;;6.12;100.00;100950.00;5062453;28;20060;-74
2022/04/27 04:11:32;;;;;;;42.60;29.75;;;;;;;6.28;100.00;100976.84;5063152;28;20044;-75
2022/04/27 04:13:58;;;;;;;40.03;28.73;;;;;;;6.28;100.00;100974.22;5072287;28;20045;-74
2022/04/27 04:16:25;;;;;;;39.30;28.25;;;;;;;6.26;100.00;100974.25;5063960;28;20072;-75
2022/04/27 04:18:52;;;;;;;39.13;29.40;;;;;;;6.26;100.00;100978.66;5068420;28;20114;-78
2022/04/27 04:21:19;;;;;;;41.80;29.13;;;;;;;6.20;100.00;100971.72;5071419;28;20067;-74
2022/04/27 04:23:45;;;;;;;46.63;29.85;;;;;;;6.14;100.00;100957.84;5065842;28;20094;-79
2022/04/27 04:28:57;;;;;;;40.78;29.58;;;;;;;6.19;100.00;100983.16;5064499;28;20045;-75
2022/04/27 04:31:24;;;;;;;44.42;31.05;;;;;;;6.20;100.00;100984.00;5065391;28;20099;-75
2022/04/27 04:33:51;;;;;;;45.20;31.25;;;;;;;6.20;100.00;100991.91;5067008;28;20127;-73
2022/04/27 04:36:18;;;;;;;43.67;30.65;;;;;;;6.24;100.00;100991.81;5066814;28;20048;-73
2022/04/27 04:38:46;;;;;;;44.10;31.58;;;;;;;6.26;100.00;100989.16;5066900;28;20135;-75
2022/04/27 04:41:12;;;;;;;47.47;31.55;;;;;;;6.24;100.00;100986.56;5069031;28;20076;-75
2022/04/27 04:43:39;;;;;;;46.28;32.60;;;;;;;6.35;100.00;100999.50;5068956;28;20056;-80
2022/04/27 04:46:06;;;;;;;45.85;33.47;;;;;;;6.21;100.00;100967.34;5082585;28;20036;-74
2022/04/27 04:48:32;;;;;;;45.92;31.10;;;;;;;6.41;100.00;101006.41;5069738;28;20049;-77
2022/04/27 04:50:59;;;;;;;45.85;31.13;;;;;;;6.29;100.00;100987.34;5066789;28;20091;-74
2022/04/27 04:53:26;;;;;;;42.88;30.15;;;;;;;6.24;100.00;100977.81;5067335;28;20048;-74
2022/04/27 04:55:53;;;;;;;44.72;30.70;;;;;;;6.27;100.00;100977.75;5062835;28;20131;-74
2022/04/27 04:58:19;;;;;;;46.80;32.20;;;;;;;6.44;100.00;101001.94;5059680;28;22017;-77
2022/04/27 05:00:48;;;;;;;47.15;32.10;;;;;;;6.48;100.00;101000.97;5064091;28;20071;-75
2022/04/27 05:03:16;;;;;;;44.50;31.20;;;;;;;6.59;100.00;101017.44;5063627;28;20109;-80
2022/04/27 05:05:43;;;;;;;50.42;33.38;;;;;;;6.65;100.00;101026.94;5064400;28;20053;-74
2022/04/27 05:08:10;;;;;;;46.15;31.90;;;;;;;6.62;100.00;101013.84;5063165;28;20053;-76
2022/04/27 05:10:38;;;;;;;45.45;32.50;;;;;;;6.50;100.00;100996.53;5065082;28;20040;-74
2022/04/27 05:13:05;;;;;;;45.53;31.27;;;;;;;6.76;100.00;101029.38;5065412;28;20049;-74
2022/04/27 05:15:32;;;;;;;45.03;32.75;;;;;;;6.74;100.00;101015.38;5059910;28;20044;-79
2022/04/27 05:17:59;;;;;;;51.80;33.63;;;;;;;6.85;100.00;101037.91;5060556;28;20044;-74
2022/04/27 05:20:25;;;;;;;46.33;33.33;;;;;;;6.94;100.00;101037.72;5066165;28;20041;-76
2022/04/27 05:22:55;;;;;;;43.03;31.23;;;;;;;7.00;100.00;101037.59;5061994;28;20113;-73
2022/04/27 05:25:22;;;;;;;49.85;33.55;;;;;;;7.12;100.00;101041.69;5067705;28;20052;-75
2022/04/27 05:27:48;;;;;;;46.50;33.38;;;;;;;7.16;100.00;101032.84;5064115;28;20049;-75
2022/04/27 05:33:03;;;;;;;43.17;31.65;;;;;;;7.43;100.00;101055.03;5068871;28;20393;-74
2022/04/27 05:35:29;;;;;;;40.35;30.58;;;;;;;7.37;100.00;101029.72;5066784;28;20037;-74
2022/04/27 05:37:56;;;;;;;43.50;31.27;;;;;;;7.56;100.00;101047.69;5059735;28;20037;-74
2022/04/27 05:40:25;;;;;;;43.00;30.92;;;;;;;7.65;100.00;101053.63;5062680;28;20071;-74
2022/04/27 05:42:52;;;;;;;44.17;31.92;;;;;;;7.70;100.00;101062.31;5067514;28;20052;-74
2022/04/27 05:45:20;;;;;;;44.35;32.05;;;;;;;7.47;100.00;101005.78;5067396;28;20060;-75
2022/04/27 05:47:46;;;;;;;42.92;31.25;;;;;;;7.73;100.00;101040.25;5070192;28;20126;-74
2022/04/27 05:50:13;;;;;;;41.03;31.23;;;;;;;7.71;100.00;101024.47;5063839;28;20053;-75
2022/04/27 05:52:54;;;;;;;42.40;31.35;;;;;;;7.86;100.00;101033.78;5062667;28;20378;-74
2022/04/27 05:55:21;;;;;;;45.10;31.20;;;;;;;8.08;100.00;101061.31;5064453;28;20064;-75
2022/04/27 05:57:49;;;;;;;39.83;30.08;;;;;;;8.18;100.00;101064.59;5058821;28;20044;-74
2022/04/27 06:00:16;;;;;;;44.22;31.20;;;;;;;8.35;100.00;101077.34;5063143;28;20049;-76
2022/04/27 06:02:44;;;;;;;40.55;30.60;;;;;;;8.42;100.00;101082.44;5063028;28;20044;-75
2022/04/27 06:05:12;;;;;;;40.08;29.55;;;;;;;8.48;100.00;101072.63;5062148;28;20554;-77
2022/04/27 06:07:39;;;;;;;39.22;29.60;;;;;;;8.38;100.00;101032.41;5062419;28;20064;-79
2022/04/27 06:10:07;;;;;;;40.20;30.33;;;;;;;8.58;100.00;101053.84;5067150;28;20052;-71
2022/04/27 06:12:36;;;;;;;40.58;30.00;;;;;;;8.66;100.00;101054.47;5068950;28;20121;-76
2022/04/27 06:15:04;;;;;;;36.70;27.75;;;;;;;8.91;100.00;101078.41;5068049;28;20056;-74
2022/04/27 06:17:31;;;;;;;37.20;28.55;;;;;;;9.08;100.00;101077.91;5066948;28;20053;-75
2022/04/27 06:19:58;;;;;;;37.78;28.63;;;;;;;9.33;100.00;101092.09;5062902;28;20118;-79
2022/04/27 06:22:25;;;;;;;35.22;27.08;;;;;;;9.48;98.80;101067.81;5062498;28;20052;-75
2022/04/27 06:24:52;;;;;;;34.08;25.98;;;;;;;9.91;95.47;101086.75;5063371;28;20438;-75
2022/04/27 06:27:19;;;;;;;35.22;25.75;;;;;;;10.27;94.22;101104.03;5067322;28;20050;-75
2022/04/27 06:29:45;;;;;;;32.10;24.98;;;;;;;10.60;91.32;101102.00;5069486;28;20480;-75
2022/04/27 06:32:12;;;;;;;32.45;23.90;;;;;;;10.84;85.85;101105.56;5066893;28;20052;-75
2022/04/27 06:34:39;;;;;;;29.00;23.67;;;;;;;10.95;84.62;101095.41;5043458;28;20052;-75
2022/04/27 06:37:05;;;;;;;30.17;23.73;;;;;;;11.03;85.17;101072.13;5058177;28;21943;-74
2022/04/27 06:39:32;;;;;;;26.98;22.65;;;;;;;11.38;81.70;101097.28;5066701;28;20048;-75
2022/04/27 06:41:59;;;;;;;24.73;20.55;;;;;;;11.45;82.42;101095.25;5062114;28;20066;-76
2022/04/27 06:44:26;;;;;;;25.70;21.77;;;;;;;11.70;82.04;101090.69;5060629;28;20055;-74
2022/04/27 06:46:52;;;;;;;23.83;21.23;;;;;;;12.05;79.50;101110.53;5066502;28;20381;-74
2022/04/27 06:49:19;;;;;;;24.95;20.25;;;;;;;12.16;77.59;101095.00;5069711;28;20057;-77
2022/04/27 06:51:46;;;;;;;24.42;20.27;;;;;;;12.32;76.34;101107.63;5063212;28;20151;-74
2022/04/27 06:54:12;;;;;;;24.30;20.25;;;;;;;12.43;76.18;101106.25;5068906;28;20110;-75
2022/04/27 06:56:39;;;;;;;27.00;20.83;;;;;;;12.57;74.85;101087.03;5066379;28;20056;-74
2022/04/27 06:59:07;;;;;;;26.30;19.38;;;;;;;13.02;74.58;101115.16;5067856;28;20049;-74
2022/04/27 07:01:33;;;;;;;22.63;19.67;;;;;;;13.25;71.98;101109.66;5065316;28;20056;-75
2022/04/27 07:04:07;;;;;;;25.80;19.45;;;;;;;13.41;72.04;101123.97;5062174;28;20052;-73
2022/04/27 07:06:35;;;;;;;23.75;19.15;;;;;;;13.55;70.98;101132.16;5064755;28;20063;-77
2022/04/27 07:09:03;;;;;;;24.17;18.20;;;;;;;13.70;67.44;101123.41;5064682;28;20060;-74
2022/04/27 07:11:29;;;;;;;23.73;18.48;;;;;;;13.61;67.72;101126.53;5066838;28;20068;-73
2022/04/27 07:13:56;;;;;;;24.33;19.20;;;;;;;13.63;68.29;101130.00;5068359;28;21212;-73
2022/04/27 07:16:23;;;;;;;23.95;18.58;;;;;;;13.44;67.71;101123.81;5063502;28;20055;-74
2022/04/27 07:18:50;;;;;;;24.75;19.95;;;;;;;13.41;69.79;101126.63;5069659;28;20040;-75
2022/04/27 07:21:17;;;;;;;25.13;20.00;;;;;;;13.51;70.24;101127.06;5064896;28;20470;-79
2022/04/27 07:23:43;;;;;;;25.75;19.10;;;;;;;13.62;68.71;101133.59;5062894;28;20063;-75
2022/04/27 07:26:10;;;;;;;22.35;18.63;;;;;;;13.76;69.21;101150.69;5062527;28;20087;-75
2022/04/27 07:28:38;;;;;;;23.17;19.10;;;;;;;13.90;67.09;101149.09;5061500;28;20052;-74
2022/04/27 07:31:05;;;;;;;23.70;19.20;;;;;;;13.72;66.41;101155.28;5066613;28;20447;-78
2022/04/27 07:33:32;;;;;;;27.27;19.20;;;;;;;13.23;67.34;101136.31;5065490;28;20056;-75
2022/04/27 07:35:59;;;;;;;24.13;19.10;;;;;;;13.15;68.27;101149.13;5065484;28;20044;-74
2022/04/27 07:38:27;;;;;;;24.92;19.15;;;;;;;13.00;69.21;101161.28;5064117;28;20056;-73
2022/04/27 07:40:54;;;;;;;23.90;19.52;;;;;;;12.91;70.67;101160.81;5063342;28;20464;-74
2022/04/27 07:43:21;;;;;;;26.42;19.65;;;;;;;13.10;70.41;101160.84;5067354;28;20086;-74
2022/04/27 07:45:48;;;;;;;25.77;19.63;;;;;;;13.26;68.47;101160.13;5065993;28;20044;-75
2022/04/27 07:48:16;;;;;;;26.40;20.27;;;;;;;13.32;69.35;101164.31;5062797;28;20044;-76
2022/04/27 07:50:42;;;;;;;23.65;18.95;;;;;;;13.52;67.65;101153.59;5072124;28;20040;-74
2022/04/27 07:53:09;;;;;;;25.55;19.42;;;;;;;13.53;68.94;101181.06;5061045;28;20511;-73
2022/04/27 07:55:36;;;;;;;25.52;19.75;;;;;;;13.74;68.19;101176.53;5062687;28;20049;-74
2022/04/27 07:58:03;;;;;;;22.58;18.80;;;;;;;14.09;66.23;101165.03;5066923;28;20048;-77
2022/04/27 08:00:30;;;;;;;23.33;18.75;;;;;;;14.24;64.70;101172.25;5063250;28;20131;-76
2022/04/27 08:02:58;;;;;;;23.17;19.30;;;;;;;14.03;64.85;101183.97;5064928;28;20071;-76
2022/04/27 08:05:25;;;;;;;26.00;18.70;;;;;;;13.88;66.71;101182.03;5058047;28;20507;-76
2022/04/27 08:07:52;;;;;;;21.60;18.67;;;;;;;14.09;66.79;101186.34;5050782;28;20068;-74
2022/04/27 08:10:20;;;;;;;27.85;19.52;;;;;;;14.29;65.79;101180.03;5045368;28;20125;-77
2022/04/27 08:12:49;;;;;;;25.25;20.17;;;;;;;14.58;64.24;101189.25;5044554;28;20079;-75
2022/04/27 08:15:18;;;;;;;22.00;17.60;;;;;;;14.37;64.53;101183.16;5047427;28;20048;-75
2022/04/27 08:17:59;;;;;;;25.40;18.80;;;;;;;14.61;66.08;101200.63;5061866;28;20045;-76
2022/04/27 08:23:40;;;;;;;21.58;18.25;;;;;;;14.62;63.70;101188.16;5065323;28;20389;-74
2022/04/27 08:26:08;;;;;;;21.50;17.52;;;;;;;14.45;65.07;101185.50;5056819;28;20099;-76
2022/04/27 08:28:37;;;;;;;25.63;19.25;;;;;;;14.35;64.73;101191.22;5062425;28;20508;-75
2022/04/27 08:31:05;;;;;;;22.48;18.05;;;;;;;14.15;65.93;101196.69;5065973;28;20056;-75
2022/04/27 08:33:32;;;;;;;23.55;17.80;;;;;;;14.16;67.27;101198.44;5060696;28;20045;-75
2022/04/27 08:36:00;;;;;;;19.80;17.30;;;;;;;14.43;66.15;101211.34;5061442;28;20110;-76
2022/04/27 08:38:46;;;;;;;22.38;18.20;;;;;;;14.67;64.61;101204.75;5055769;28;20056;-75
2022/04/27 08:41:14;;;;;;;25.00;18.00;;;;;;;14.77;63.55;101187.38;5042442;28;20061;-77
2022/04/27 08:43:41;;;;;;;18.73;16.63;;;;;;;15.09;64.20;101215.91;5031569;28;20044;-77
2022/04/27 08:46:08;;;;;;;20.85;16.55;;;;;;;15.19;62.13;101189.59;5038390;28;20057;-77
2022/04/27 08:51:17;;;;;;;22.13;18.00;;;;;;;14.93;62.34;101208.78;5041639;23;20050;-75
2022/04/27 08:53:45;;;;;;;21.77;17.98;;;;;;;14.95;62.14;101213.06;4968882;28;20042;-75
2022/04/27 08:56:13;;;;;;;21.55;17.50;;;;;;;15.08;62.47;101214.16;4985465;28;20049;-75
2022/04/27 08:58:40;;;;;;;19.80;17.60;;;;;;;15.01;61.48;101199.41;4994073;28;20057;-75
2022/04/27 09:01:09;;;;;;;20.05;17.38;;;;;;;15.19;62.35;101218.06;4998799;28;20057;-77
2022/04/27 09:03:38;;;;;;;21.00;17.33;;;;;;;15.23;62.27;101204.50;5006802;28;20529;-76
2022/04/27 09:06:12;;;;;;;21.52;16.67;;;;;;;15.54;60.82;101203.69;5005654;28;20058;-76
2022/04/27 09:08:43;;;;;;;20.58;16.92;;;;;;;15.55;59.69;101216.13;5007608;28;20076;-77
2022/04/27 09:11:25;;;;;;;19.33;16.73;;;;;;;15.23;62.07;101215.16;5005273;28;20185;-76
2022/04/27 09:13:55;;;;;;;21.73;18.05;;;;;;;15.20;62.52;101215.31;5004418;28;20104;-76
2022/04/27 09:16:24;;;;;;;22.48;17.38;;;;;;;15.06;62.96;101218.72;5002240;28;20058;-77
2022/04/27 09:22:00;;;;;;;18.83;15.38;;;;;;;14.57;63.67;101220.38;5005133;28;20100;-75
2022/04/27 09:24:29;;;;;;;19.70;15.82;;;;;;;14.49;63.92;101208.34;5002695;28;20096;-75
2022/04/27 09:27:16;;;;;;;18.88;16.00;;;;;;;14.59;64.82;101217.63;5007288;28;20050;-75
2022/04/27 09:29:43;;;;;;;19.85;17.60;;;;;;;14.46;64.58;101220.06;5004695;28;20054;-76
2022/04/27 09:32:15;;;;;;;23.33;17.73;;;;;;;14.11;66.71;101211.09;5006502;28;20061;-77
2022/04/27 09:34:47;;;;;;;19.88;16.25;;;;;;;14.25;67.60;101219.28;4996945;28;20069;-76
2022/04/27 09:37:16;;;;;;;21.15;16.90;;;;;;;14.41;65.85;101219.41;5002335;28;20532;-76
2022/04/27 09:39:44;;;;;;;23.30;17.02;;;;;;;14.54;65.67;101220.53;5003861;28;20426;-78
2022/04/27 09:42:14;;;;;;;19.95;16.17;;;;;;;14.51;64.82;101203.81;5000289;28;20062;-76
2022/04/27 09:44:42;;;;;;;20.27;15.80;;;;;;;14.40;63.99;101188.38;5001206;28;20507;-76
2022/04/27 09:47:16;;;;;;;19.88;16.33;;;;;;;14.33;64.11;101206.44;5004582;28;20104;-75
2022/04/27 09:49:43;;;;;;;17.77;15.80;;;;;;;14.39;64.81;101208.78;5004647;28;20062;-79
2022/04/27 09:52:15;;;;;;;18.67;16.00;;;;;;;14.48;65.03;101209.31;5002915;28;20052;-77
2022/04/27 09:54:42;;;;;;;19.95;16.90;;;;;;;14.56;63.88;101209.78;5008208;28;20442;-77
2022/04/27 09:57:13;;;;;;;18.05;16.05;;;;;;;14.42;63.16;101178.50;5009393;28;20399;-77
2022/04/27 09:59:41;;;;;;;20.33;16.58;;;;;;;14.73;63.48;101216.00;5002943;28;20046;-77
2022/04/27 10:02:13;;;;;;;20.35;15.25;;;;;;;14.88;62.69;101208.13;5007938;28;20050;-78
2022/04/27 10:04:42;;;;;;;19.63;15.50;;;;;;;14.96;61.15;101217.44;5002019;28;20136;-75
2022/04/27 10:07:13;;;;;;;19.83;14.25;;;;;;;14.89;61.90;101193.88;5010807;28;20057;-75
2022/04/27 10:09:40;;;;;;;18.85;15.45;;;;;;;14.99;62.73;101195.97;5005827;28;20045;-76
2022/04/27 10:12:14;;;;;;;18.65;15.13;;;;;;;15.20;63.87;101204.66;5007938;28;20148;-76
2022/04/27 10:14:42;;;;;;;21.02;16.75;;;;;;;15.37;63.45;101204.59;5009168;28;20045;-76
2022/04/27 10:17:12;;;;;;;19.98;16.25;;;;;;;15.56;63.51;101199.16;5000960;28;20456;-75
2022/04/27 10:19:50;;;;;;;21.23;13.52;;;;;;;15.65;60.21;101179.97;4987433;28;20082;-76
2022/04/27 10:22:32;;;;;;;16.23;12.65;;;;;;;15.80;58.24;101178.25;4989215;28;20463;-76
2022/04/27 10:25:07;;;;;;;14.85;12.27;;;;;;;16.14;57.73;101195.91;5003403;28;20042;-75
2022/04/27 10:27:40;;;;;;;14.90;12.63;;;;;;;16.24;56.97;101194.41;4998653;28;20077;-76
2022/04/27 10:30:10;;;;;;;15.25;13.38;;;;;;;16.26;56.10;101194.31;4988199;28;20081;-75
2022/04/27 10:32:42;;;;;;;16.73;14.50;;;;;;;16.04;57.09;101187.56;4995879;28;20650;-75
2022/04/27 10:35:12;;;;;;;16.08;14.00;;;;;;;16.07;56.94;101192.69;5004047;28;20152;-75
2022/04/27 10:37:48;;;;;;;18.75;14.10;;;;;;;16.02;57.26;101192.13;5008879;28;20073;-76
2022/04/27 10:40:32;;;;;;;17.88;13.98;;;;;;;16.01;56.75;101195.75;5003321;28;20054;-76
2022/04/27 10:43:01;;;;;;;15.65;12.60;;;;;;;16.03;57.57;101195.66;4996414;28;20046;-76
2022/04/27 10:45:28;;;;;;;20.23;14.00;;;;;;;16.19;57.69;101191.16;4995080;28;20042;-77
2022/04/27 10:47:55;;;;;;;15.52;13.55;;;;;;;15.87;57.64;101117.34;5000462;28;20045;-77
2022/04/27 10:50:29;;;;;;;15.40;13.50;;;;;;;16.21;56.61;101185.72;5004540;28;20053;-76
2022/04/27 10:52:58;;;;;;;14.73;12.40;;;;;;;16.00;56.98;101156.63;4999845;28;20053;-76
2022/04/27 10:55:50;;;;;;;9.73;8.73;;;;;;;16.27;51.83;101177.34;5002391;28;20138;-76
2022/04/27 10:58:37;;;;;;;10.68;8.95;;;;;;;16.49;51.51;101180.47;4999285;28;20136;-77
2022/04/27 11:01:09;;;;;;;8.60;7.68;;;;;;;16.68;49.26;101186.50;5004655;28;20066;-78
2022/04/27 11:03:38;;;;;;;15.27;10.20;;;;;;;16.81;48.76;101182.13;4997156;28;20132;-76
2022/04/27 11:06:06;;;;;;;11.43;8.70;;;;;;;16.65;49.04;101159.94;5002990;28;20054;-76
2022/04/27 11:08:36;;;;;;;13.43;10.00;;;;;;;16.68;49.29;101175.81;5005322;28;20097;-77
2022/04/27 11:11:07;;;;;;;13.02;10.10;;;;;;;16.67;50.38;101178.56;5006714;28;20489;-75
2022/04/27 11:13:35;;;;;;;12.90;9.27;;;;;;;16.72;50.22;101179.13;5003620;28;20046;-76
2022/04/27 11:16:08;;;;;;;10.90;8.95;;;;;;;16.84;50.54;101183.75;4991639;28;20140;-77
2022/04/27 11:18:48;;;;;;;12.25;9.68;;;;;;;16.80;49.96;101174.19;4976244;28;20097;-76
2022/04/27 11:21:18;;;;;;;;;;;;;;;16.87;49.89;101172.00;4980681;28;20093;-77
2022/04/27 11:23:46;;;;;;;8.13;5.55;;;;;;;16.98;44.82;101169.53;4974766;28;20370;-75
2022/04/27 11:26:16;;;;;;;7.78;6.93;;;;;;;17.07;44.70;101167.16;4974092;28;20042;-76
2022/04/27 11:28:44;;;;;;;8.95;7.78;;;;;;;17.16;45.40;101153.19;4979338;28;20110;-77
2022/04/27 11:31:12;;;;;;;9.50;6.72;;;;;;;17.22;45.72;101140.38;4985853;28;20065;-79
2022/04/27 11:33:40;;;;;;;7.32;6.60;;;;;;;17.49;45.89;101138.63;4980998;28;20470;-76
2022/04/27 11:36:19;;;;;;;9.23;7.25;;;;;;;17.64;46.41;101172.50;4976622;28;20453;-76